METAR Data
IDs: Format: Raw Decoded Include TAF

Data at: 0512 UTC 20 Oct 2018

PADK 200456Z AUTO 25008KT 10SM FEW026 BKN045 06/04 A2933 RMK AO2 SLP930 T00610044
PADK 200356Z AUTO 25010KT 10SM SCT041 07/04 A2932 RMK AO2 SLP930 T00720044
PADK 200256Z AUTO 25010KT 10SM FEW020 OVC042 08/05 A2933 RMK AO2 SLP932 T00780050 56006
PADK 200207Z AUTO 24007KT 10SM FEW015 SCT020 OVC038 08/05 A2934 RMK AO2
PADK 200156Z AUTO 23009KT 10SM SCT015 BKN020 OVC038 08/05 A2934 RMK AO2 SLP935 T00780050
PADK 200056Z AUTO 25011KT 10SM FEW015 SCT042 09/05 A2935 RMK AO2 SLP939 T00890050
PADK 192356Z AUTO 24011KT 10SM CLR 09/04 A2937 RMK AO2 SLP944 T00890039 10094 20044 58009
PADK 192256Z AUTO 23010KT 10SM FEW018 09/03 A2938 RMK AO2 SLP950 T00890033
PADK 192156Z AUTO 24012KT 10SM BKN055 08/04 A2939 RMK AO2 SLP954 T00830044
PADK 192056Z AUTO 25011KT 10SM FEW047 SCT070 08/05 A2939 RMK AO2 SLP953 T00780050 50000
PADK 191956Z AUTO 24005KT 10SM FEW065 07/05 A2939 RMK AO2 SLP954 T00670050
PADK 191856Z AUTO 27011KT 10SM CLR 05/03 A2940 RMK AO2 SLP956 T00500028
PADK 191756Z AUTO 21004KT 10SM FEW023 BKN031 06/04 A2939 RMK AO2 RAE28 SLP953 P0002 60002 T00560044 10072 20056 55020
PADK 191748Z AUTO 29003KT 10SM FEW018 SCT023 BKN031 06/05 A2939 RMK AO2 RAE28 P0002
PADK 191731Z AUTO 32008KT 10SM SCT008 OVC021 06/06 A2939 RMK AO2 RAE28 P0001
PADK 191656Z AUTO 33008KT 6SM -RA BR OVC009 07/06 A2939 RMK AO2 RAB28 CIG 005V011 SLP952 P0000 T00670056
PADK 191605Z AUTO 08010KT 10SM OVC013 07/05 A2941 RMK AO2
PADK 191556Z AUTO 04008KT 10SM OVC015 07/05 A2941 RMK AO2 RAE1457 SLP959 T00670050
PADK 191356Z AUTO 15010KT 10SM -RA BKN022 OVC037 07/04 A2949 RMK AO2 SLP985 P0000 T00670039
PADK 191256Z AUTO 15013G20KT 10SM -RA BKN017 BKN022 OVC055 06/04 A2951 RMK AO2 RAE16B39 SLP994 P0000 T00610039
PADK 191156Z AUTO 15007KT 10SM -RA BKN017 BKN021 OVC036 06/04 A2956 RMK AO2 SLP009 P0001 60011 70014 T00610039 10067 20061 58036
PADK 191056Z AUTO 17010KT 10SM -RA OVC019 06/04 A2960 RMK AO2 SLP023 P0003 T00610039
PADK 190956Z AUTO 16014G17KT 10SM -RA BKN017 OVC023 06/04 A2963 RMK AO2 SLP035 P0001 T00610044 400830000
PADK 190856Z AUTO 17012G19KT 8SM -RA BKN022 OVC028 06/04 A2966 RMK AO2 SLP045 P0002 60006 T00610039 58027
PADK 190756Z AUTO 17011KT 10SM -RA BKN019 BKN023 OVC028 06/04 A2969 RMK AO2 SLP055 P0002 T00610039
PADK 190656Z AUTO 18013KT 10SM -RA OVC021 06/04 A2972 RMK AO2 SLP065 P0002 T00610039
PADK 190556Z AUTO 17011KT 10SM -RA BKN023 OVC028 07/04 A2974 RMK AO2 SLP072 P0002 60003 T00670044 10083 20067 56025
PADK 190456Z AUTO 19007KT 9SM -RA BKN024 BKN033 OVC043 07/04 A2977 RMK AO2 SLP080 P0000 T00670044
PADK 190447Z AUTO 17009KT 7SM -RA BKN024 BKN035 OVC060 07/04 A2977 RMK AO2 P0000
PADK 190418Z AUTO 16012KT 10SM -RA FEW027 OVC036 07/05 A2977 RMK AO2 P0000
PADK 190356Z AUTO 17011KT 9SM -RA BKN027 OVC041 07/05 A2979 RMK AO2 RAB27 SLP086 P0000 T00720050
PADK 190256Z AUTO 18008KT 10SM BKN020 BKN024 OVC055 07/04 A2982 RMK AO2 RAB30E42 SLP097 P0000 60001 T00720044 56020
PADK 190236Z AUTO 16012KT 10SM -RA SCT022 BKN038 OVC050 07/04 A2982 RMK AO2 RAB30 P0000
PADK 190156Z AUTO 17010KT 10SM OVC022 07/04 A2985 RMK AO2 RAE51 SLP108 P0001 T00670044
PADK 190146Z AUTO 16010KT 7SM -RA OVC022 07/05 A2985 RMK AO2 P0001
PADK 190139Z AUTO 17009KT 2 1/2SM -RA BR BKN019 OVC025 07/04 A2985 RMK AO2 P0001
PADK 190056Z AUTO 16009KT 9SM -RA OVC028 08/04 A2988 RMK AO2 RAB54 SLP117 P0000 T00780039
PADK 182356Z AUTO 16011KT 10SM OVC039 08/03 A2992 RMK AO2 SLP130 T00830033 10083 20011 58034
PADK 182256Z AUTO 16008KT 10SM SCT023 OVC039 08/04 A2996 RMK AO2 SLP145 T00780039
PADK 182244Z AUTO 17009KT 10SM FEW021 BKN039 08/04 A2996 RMK AO2
PADK 182211Z AUTO 16008KT 10SM BKN026 OVC033 07/04 A2998 RMK AO2
PADK 182156Z AUTO 15007KT 10SM SCT024 OVC033 08/04 A2998 RMK AO2 SLP153 T00780039
PADK 182056Z AUTO 15003KT 10SM BKN120 07/03 A3002 RMK AO2 SLP164 T00670033 58013
PADK 181956Z AUTO 00000KT 10SM CLR 03/03 A3004 RMK AO2 SLP172 T00330028
PADK 181856Z AUTO 00000KT 10SM CLR 02/01 A3005 RMK AO2 SLP177 T00170006 FZRANO
PADK 181756Z AUTO 00000KT 10SM CLR 01/00 A3005 RMK AO2 SLP177 T00110000 10017 20000 56017 FZRANO